sensor_id;sensor_type;location;lat;lon;timestamp;pressure;altitude;pressure_sealevel;temperature;humidity
52935;BME280;38802;50.198;19.796;2023-05-19T00:01:58;97067.42;;;6.91;94.67
52935;BME280;38802;50.198;19.796;2023-05-19T00:04:31;97060.16;;;6.91;94.80
52935;BME280;38802;50.198;19.796;2023-05-19T00:06:58;97058.13;;;6.91;94.73
52935;BME280;38802;50.198;19.796;2023-05-19T00:09:26;97060.98;;;6.89;94.62
52935;BME280;38802;50.198;19.796;2023-05-19T00:11:53;97056.56;;;6.88;94.77
52935;BME280;38802;50.198;19.796;2023-05-19T00:14:22;97057.20;;;6.92;94.88
52935;BME280;38802;50.198;19.796;2023-05-19T00:16:49;97057.24;;;6.95;94.86
52935;BME280;38802;50.198;19.796;2023-05-19T00:19:15;97054.41;;;6.96;95.01
52935;BME280;38802;50.198;19.796;2023-05-19T00:21:43;97050.34;;;6.98;95.01
52935;BME280;38802;50.198;19.796;2023-05-19T00:24:09;97045.73;;;6.93;94.78
52935;BME280;38802;50.198;19.796;2023-05-19T00:26:36;97042.73;;;6.91;94.86
52935;BME280;38802;50.198;19.796;2023-05-19T00:29:04;97039.48;;;6.91;94.89
52935;BME280;38802;50.198;19.796;2023-05-19T00:31:31;97039.09;;;6.91;94.96
52935;BME280;38802;50.198;19.796;2023-05-19T00:34:00;97038.19;;;6.92;94.89
52935;BME280;38802;50.198;19.796;2023-05-19T00:36:26;97036.52;;;6.91;94.92
52935;BME280;38802;50.198;19.796;2023-05-19T00:38:55;97030.23;;;6.92;94.99
52935;BME280;38802;50.198;19.796;2023-05-19T00:41:21;97033.85;;;6.96;94.99
52935;BME280;38802;50.198;19.796;2023-05-19T00:43:49;97033.80;;;6.93;95.15
52935;BME280;38802;50.198;19.796;2023-05-19T00:46:17;97034.98;;;6.90;94.90
52935;BME280;38802;50.198;19.796;2023-05-19T00:48:44;97038.70;;;6.89;94.94
52935;BME280;38802;50.198;19.796;2023-05-19T00:51:12;97041.23;;;6.90;95.00
52935;BME280;38802;50.198;19.796;2023-05-19T00:53:42;97039.58;;;6.96;95.18
52935;BME280;38802;50.198;19.796;2023-05-19T00:56:13;97037.98;;;7.00;95.26
52935;BME280;38802;50.198;19.796;2023-05-19T00:58:42;97038.48;;;7.00;95.10
52935;BME280;38802;50.198;19.796;2023-05-19T01:01:09;97037.14;;;7.02;95.17
52935;BME280;38802;50.198;19.796;2023-05-19T01:03:37;97033.92;;;7.04;95.21
52935;BME280;38802;50.198;19.796;2023-05-19T01:06:06;97030.81;;;7.04;95.13
52935;BME280;38802;50.198;19.796;2023-05-19T01:08:35;97029.85;;;7.03;95.23
52935;BME280;38802;50.198;19.796;2023-05-19T01:11:04;97034.77;;;7.01;95.14
52935;BME280;38802;50.198;19.796;2023-05-19T01:13:36;97040.29;;;7.02;94.96
52935;BME280;38802;50.198;19.796;2023-05-19T01:16:21;97039.16;;;7.03;95.06
52935;BME280;38802;50.198;19.796;2023-05-19T01:19:07;97044.64;;;7.04;95.16
52935;BME280;38802;50.198;19.796;2023-05-19T01:32:54;97034.71;;;6.92;95.30
52935;BME280;38802;50.198;19.796;2023-05-19T01:35:24;97034.02;;;6.93;95.33
52935;BME280;38802;50.198;19.796;2023-05-19T01:37:55;97034.44;;;6.91;95.12
52935;BME280;38802;50.198;19.796;2023-05-19T01:40:23;97038.55;;;6.89;95.19
52935;BME280;38802;50.198;19.796;2023-05-19T01:42:52;97036.79;;;6.89;95.23
52935;BME280;38802;50.198;19.796;2023-05-19T01:45:26;97034.93;;;6.91;95.35
52935;BME280;38802;50.198;19.796;2023-05-19T01:47:55;97030.23;;;6.92;95.19
52935;BME280;38802;50.198;19.796;2023-05-19T01:50:22;97026.21;;;6.93;95.30
52935;BME280;38802;50.198;19.796;2023-05-19T01:52:49;97018.75;;;6.94;95.24
52935;BME280;38802;50.198;19.796;2023-05-19T01:55:16;97013.35;;;6.95;95.33
52935;BME280;38802;50.198;19.796;2023-05-19T02:06:19;97011.23;;;6.92;95.32
52935;BME280;38802;50.198;19.796;2023-05-19T02:09:11;97011.39;;;6.92;95.39
52935;BME280;38802;50.198;19.796;2023-05-19T02:11:42;97011.27;;;6.91;95.47
52935;BME280;38802;50.198;19.796;2023-05-19T02:14:17;97007.85;;;6.91;95.45
52935;BME280;38802;50.198;19.796;2023-05-19T02:16:46;97008.95;;;6.97;95.64
52935;BME280;38802;50.198;19.796;2023-05-19T02:19:21;97007.12;;;6.99;95.67
52935;BME280;38802;50.198;19.796;2023-05-19T02:21:49;97005.75;;;6.98;95.58
52935;BME280;38802;50.198;19.796;2023-05-19T02:24:16;96999.55;;;6.98;95.55
52935;BME280;38802;50.198;19.796;2023-05-19T02:26:43;96995.34;;;6.96;95.52
52935;BME280;38802;50.198;19.796;2023-05-19T02:29:09;96995.88;;;6.96;95.42
52935;BME280;38802;50.198;19.796;2023-05-19T02:31:36;96992.97;;;6.95;95.49
52935;BME280;38802;50.198;19.796;2023-05-19T02:34:03;96997.34;;;6.94;95.66
52935;BME280;38802;50.198;19.796;2023-05-19T02:36:33;96994.27;;;6.93;95.59
52935;BME280;38802;50.198;19.796;2023-05-19T02:39:01;96988.05;;;6.93;95.68
52935;BME280;38802;50.198;19.796;2023-05-19T02:41:29;96987.33;;;6.94;95.56
52935;BME280;38802;50.198;19.796;2023-05-19T02:43:55;96988.57;;;6.93;95.54
52935;BME280;38802;50.198;19.796;2023-05-19T02:46:23;96991.77;;;6.91;95.72
52935;BME280;38802;50.198;19.796;2023-05-19T02:48:50;96992.42;;;6.89;95.75
52935;BME280;38802;50.198;19.796;2023-05-19T02:51:17;96998.81;;;6.86;95.56
52935;BME280;38802;50.198;19.796;2023-05-19T02:53:44;96991.58;;;6.85;95.82
52935;BME280;38802;50.198;19.796;2023-05-19T02:56:10;96990.63;;;6.87;96.03
52935;BME280;38802;50.198;19.796;2023-05-19T02:58:37;96988.56;;;6.87;96.06
52935;BME280;38802;50.198;19.796;2023-05-19T03:01:04;96990.83;;;6.87;96.00
52935;BME280;38802;50.198;19.796;2023-05-19T03:03:31;96985.52;;;6.89;96.15
52935;BME280;38802;50.198;19.796;2023-05-19T03:05:58;96990.15;;;6.89;96.03
52935;BME280;38802;50.198;19.796;2023-05-19T03:08:24;96994.67;;;6.92;96.09
52935;BME280;38802;50.198;19.796;2023-05-19T03:10:51;97000.52;;;6.92;96.25
52935;BME280;38802;50.198;19.796;2023-05-19T03:13:18;97004.37;;;6.91;96.21
52935;BME280;38802;50.198;19.796;2023-05-19T03:15:44;97003.55;;;6.90;96.45
52935;BME280;38802;50.198;19.796;2023-05-19T03:18:11;97005.05;;;6.91;96.41
52935;BME280;38802;50.198;19.796;2023-05-19T03:20:38;97005.36;;;6.92;96.34
52935;BME280;38802;50.198;19.796;2023-05-19T03:23:07;97004.32;;;6.92;96.63
52935;BME280;38802;50.198;19.796;2023-05-19T03:25:34;97003.92;;;6.93;96.44
52935;BME280;38802;50.198;19.796;2023-05-19T03:28:01;97000.15;;;6.97;96.37
52935;BME280;38802;50.198;19.796;2023-05-19T03:30:28;96994.83;;;6.99;96.56
52935;BME280;38802;50.198;19.796;2023-05-19T03:33:08;96993.12;;;7.02;96.61
52935;BME280;38802;50.198;19.796;2023-05-19T03:35:35;96994.02;;;7.04;96.74
52935;BME280;38802;50.198;19.796;2023-05-19T03:38:02;96993.48;;;7.07;96.64
52935;BME280;38802;50.198;19.796;2023-05-19T03:40:29;96995.91;;;7.10;96.68
52935;BME280;38802;50.198;19.796;2023-05-19T03:43:01;96997.45;;;7.11;96.71
52935;BME280;38802;50.198;19.796;2023-05-19T03:45:28;97001.89;;;7.09;96.81
52935;BME280;38802;50.198;19.796;2023-05-19T03:47:55;97001.81;;;7.04;96.85
52935;BME280;38802;50.198;19.796;2023-05-19T03:50:42;97001.26;;;7.05;96.90
52935;BME280;38802;50.198;19.796;2023-05-19T03:53:15;96994.80;;;7.05;96.97
52935;BME280;38802;50.198;19.796;2023-05-19T03:55:42;96996.92;;;7.05;96.74
52935;BME280;38802;50.198;19.796;2023-05-19T03:58:11;97003.17;;;7.07;96.81
52935;BME280;38802;50.198;19.796;2023-05-19T04:00:39;97007.25;;;7.08;96.94
52935;BME280;38802;50.198;19.796;2023-05-19T04:03:06;97009.52;;;7.08;96.97
52935;BME280;38802;50.198;19.796;2023-05-19T04:05:33;97008.11;;;7.06;96.84
52935;BME280;38802;50.198;19.796;2023-05-19T04:08:00;97005.04;;;7.05;96.86
52935;BME280;38802;50.198;19.796;2023-05-19T04:10:27;97009.86;;;7.08;97.15
52935;BME280;38802;50.198;19.796;2023-05-19T04:12:53;97006.11;;;7.10;97.26
52935;BME280;38802;50.198;19.796;2023-05-19T04:15:20;97006.46;;;7.10;97.07
52935;BME280;38802;50.198;19.796;2023-05-19T04:17:47;97006.41;;;7.11;97.07
52935;BME280;38802;50.198;19.796;2023-05-19T04:20:13;97003.98;;;7.11;97.10
52935;BME280;38802;50.198;19.796;2023-05-19T04:22:40;97004.40;;;7.13;97.12
52935;BME280;38802;50.198;19.796;2023-05-19T04:25:07;97008.50;;;7.14;97.35
52935;BME280;38802;50.198;19.796;2023-05-19T04:27:35;97012.04;;;7.15;97.18
52935;BME280;38802;50.198;19.796;2023-05-19T04:30:05;97013.92;;;7.16;97.36
52935;BME280;38802;50.198;19.796;2023-05-19T04:32:32;97008.22;;;7.15;97.23
52935;BME280;38802;50.198;19.796;2023-05-19T04:34:59;97003.98;;;7.17;97.43
52935;BME280;38802;50.198;19.796;2023-05-19T04:37:27;97006.80;;;7.19;97.47
52935;BME280;38802;50.198;19.796;2023-05-19T04:39:55;97010.86;;;7.21;97.49
52935;BME280;38802;50.198;19.796;2023-05-19T04:42:24;97006.19;;;7.21;97.47
52935;BME280;38802;50.198;19.796;2023-05-19T04:44:51;97006.27;;;7.22;97.31
52935;BME280;38802;50.198;19.796;2023-05-19T04:47:18;97005.13;;;7.24;97.32
52935;BME280;38802;50.198;19.796;2023-05-19T04:49:47;97002.65;;;7.25;97.50
52935;BME280;38802;50.198;19.796;2023-05-19T04:52:14;96999.78;;;7.27;97.62
52935;BME280;38802;50.198;19.796;2023-05-19T04:54:41;96995.45;;;7.28;97.63
52935;BME280;38802;50.198;19.796;2023-05-19T04:57:09;96999.29;;;7.30;97.75
52935;BME280;38802;50.198;19.796;2023-05-19T04:59:38;97003.77;;;7.30;97.97
52935;BME280;38802;50.198;19.796;2023-05-19T05:02:06;97004.16;;;7.29;97.78
52935;BME280;38802;50.198;19.796;2023-05-19T05:04:34;97007.23;;;7.30;97.82
52935;BME280;38802;50.198;19.796;2023-05-19T05:07:01;97003.64;;;7.29;97.91
52935;BME280;38802;50.198;19.796;2023-05-19T05:09:28;97002.40;;;7.30;98.20
52935;BME280;38802;50.198;19.796;2023-05-19T05:11:56;97001.89;;;7.33;98.04
52935;BME280;38802;50.198;19.796;2023-05-19T05:14:23;97002.89;;;7.33;97.97
52935;BME280;38802;50.198;19.796;2023-05-19T05:16:51;97003.81;;;7.35;98.11
52935;BME280;38802;50.198;19.796;2023-05-19T05:19:21;97001.77;;;7.41;98.16
52935;BME280;38802;50.198;19.796;2023-05-19T05:21:48;97003.34;;;7.44;98.15
52935;BME280;38802;50.198;19.796;2023-05-19T05:24:16;97008.64;;;7.48;98.34
52935;BME280;38802;50.198;19.796;2023-05-19T05:26:47;97008.58;;;7.52;98.34
52935;BME280;38802;50.198;19.796;2023-05-19T05:29:15;97006.27;;;7.53;98.29
52935;BME280;38802;50.198;19.796;2023-05-19T05:31:41;97008.09;;;7.54;98.39
52935;BME280;38802;50.198;19.796;2023-05-19T05:34:09;97007.21;;;7.55;98.26
52935;BME280;38802;50.198;19.796;2023-05-19T05:36:36;97005.22;;;7.59;98.31
52935;BME280;38802;50.198;19.796;2023-05-19T05:39:03;97011.91;;;7.63;98.31
52935;BME280;38802;50.198;19.796;2023-05-19T05:41:31;97016.54;;;7.66;98.35
52935;BME280;38802;50.198;19.796;2023-05-19T05:44:03;97018.35;;;7.71;98.27
52935;BME280;38802;50.198;19.796;2023-05-19T05:46:31;97020.27;;;7.77;98.50
52935;BME280;38802;50.198;19.796;2023-05-19T05:48:58;97022.85;;;7.80;98.41
52935;BME280;38802;50.198;19.796;2023-05-19T05:51:25;97025.83;;;7.88;98.62
52935;BME280;38802;50.198;19.796;2023-05-19T05:53:53;97028.39;;;7.98;98.71
52935;BME280;38802;50.198;19.796;2023-05-19T05:56:21;97031.10;;;8.01;98.52
52935;BME280;38802;50.198;19.796;2023-05-19T05:58:50;97028.56;;;8.06;98.60
52935;BME280;38802;50.198;19.796;2023-05-19T06:01:17;97024.80;;;8.11;98.66
52935;BME280;38802;50.198;19.796;2023-05-19T06:03:44;97026.68;;;8.12;98.55
52935;BME280;38802;50.198;19.796;2023-05-19T06:06:13;97029.75;;;8.09;98.55
52935;BME280;38802;50.198;19.796;2023-05-19T06:08:40;97030.72;;;8.10;98.52
52935;BME280;38802;50.198;19.796;2023-05-19T06:11:06;97033.51;;;8.16;98.74
52935;BME280;38802;50.198;19.796;2023-05-19T06:13:35;97036.58;;;8.23;98.73
52935;BME280;38802;50.198;19.796;2023-05-19T06:16:04;97038.86;;;8.28;98.72
52935;BME280;38802;50.198;19.796;2023-05-19T06:18:43;97041.69;;;8.33;98.80
52935;BME280;38802;50.198;19.796;2023-05-19T06:21:10;97047.48;;;8.40;98.84
52935;BME280;38802;50.198;19.796;2023-05-19T06:23:39;97050.20;;;8.47;98.84
52935;BME280;38802;50.198;19.796;2023-05-19T06:26:08;97051.25;;;8.49;98.68
52935;BME280;38802;50.198;19.796;2023-05-19T06:28:34;97055.04;;;8.53;98.76
52935;BME280;38802;50.198;19.796;2023-05-19T06:31:02;97052.90;;;8.57;98.74
52935;BME280;38802;50.198;19.796;2023-05-19T06:33:47;97051.04;;;8.59;98.59
52935;BME280;38802;50.198;19.796;2023-05-19T06:36:14;97047.83;;;8.58;98.38
52935;BME280;38802;50.198;19.796;2023-05-19T06:38:42;97046.85;;;8.57;98.40
52935;BME280;38802;50.198;19.796;2023-05-19T06:41:09;97048.50;;;8.58;98.53
52935;BME280;38802;50.198;19.796;2023-05-19T06:43:36;97046.33;;;8.62;98.44
52935;BME280;38802;50.198;19.796;2023-05-19T06:46:03;97042.14;;;8.65;98.53
52935;BME280;38802;50.198;19.796;2023-05-19T06:48:32;97040.42;;;8.71;98.56
52935;BME280;38802;50.198;19.796;2023-05-19T06:50:59;97045.34;;;8.75;98.38
52935;BME280;38802;50.198;19.796;2023-05-19T06:53:26;97048.91;;;8.77;98.32
52935;BME280;38802;50.198;19.796;2023-05-19T06:55:52;97047.70;;;8.79;98.40
52935;BME280;38802;50.198;19.796;2023-05-19T06:58:26;97054.39;;;8.80;98.27
52935;BME280;38802;50.198;19.796;2023-05-19T07:00:54;97052.73;;;8.82;98.31
52935;BME280;38802;50.198;19.796;2023-05-19T07:03:22;97054.15;;;8.85;98.37
52935;BME280;38802;50.198;19.796;2023-05-19T07:05:49;97051.81;;;8.88;98.33
52935;BME280;38802;50.198;19.796;2023-05-19T07:08:16;97050.14;;;8.93;98.37
52935;BME280;38802;50.198;19.796;2023-05-19T07:10:43;97047.64;;;9.00;98.47
52935;BME280;38802;50.198;19.796;2023-05-19T07:13:11;97046.12;;;9.02;98.07
52935;BME280;38802;50.198;19.796;2023-05-19T07:15:38;97048.62;;;9.01;97.91
52935;BME280;38802;50.198;19.796;2023-05-19T07:18:05;97046.10;;;9.05;98.25
52935;BME280;38802;50.198;19.796;2023-05-19T07:20:31;97050.05;;;9.11;98.29
52935;BME280;38802;50.198;19.796;2023-05-19T07:22:59;97046.94;;;9.14;98.03
52935;BME280;38802;50.198;19.796;2023-05-19T07:25:28;97046.95;;;9.13;97.96
52935;BME280;38802;50.198;19.796;2023-05-19T07:27:56;97046.80;;;9.19;98.06
52935;BME280;38802;50.198;19.796;2023-05-19T07:30:23;97048.69;;;9.22;97.71
52935;BME280;38802;50.198;19.796;2023-05-19T07:32:49;97048.06;;;9.26;97.85
52935;BME280;38802;50.198;19.796;2023-05-19T07:35:16;97046.55;;;9.28;97.87
52935;BME280;38802;50.198;19.796;2023-05-19T07:37:42;97042.90;;;9.33;97.74
52935;BME280;38802;50.198;19.796;2023-05-19T07:40:09;97039.91;;;9.39;97.94
52935;BME280;38802;50.198;19.796;2023-05-19T07:42:36;97041.24;;;9.42;97.53
52935;BME280;38802;50.198;19.796;2023-05-19T07:45:03;97041.43;;;9.45;97.63
52935;BME280;38802;50.198;19.796;2023-05-19T07:47:29;97044.08;;;9.50;97.55
52935;BME280;38802;50.198;19.796;2023-05-19T07:49:56;97046.63;;;9.53;97.31
52935;BME280;38802;50.198;19.796;2023-05-19T07:52:23;97044.83;;;9.57;97.02
52935;BME280;38802;50.198;19.796;2023-05-19T07:54:49;97043.80;;;9.60;97.23
52935;BME280;38802;50.198;19.796;2023-05-19T07:57:16;97043.84;;;9.59;96.81
52935;BME280;38802;50.198;19.796;2023-05-19T07:59:44;97041.93;;;9.62;96.98
52935;BME280;38802;50.198;19.796;2023-05-19T08:02:10;97040.90;;;9.69;96.47
52935;BME280;38802;50.198;19.796;2023-05-19T08:04:37;97035.45;;;9.68;96.43
52935;BME280;38802;50.198;19.796;2023-05-19T08:07:04;97036.16;;;9.73;96.27
52935;BME280;38802;50.198;19.796;2023-05-19T08:09:31;97035.53;;;9.74;96.32
52935;BME280;38802;50.198;19.796;2023-05-19T08:11:57;97033.11;;;9.80;96.47
52935;BME280;38802;50.198;19.796;2023-05-19T08:14:24;97034.67;;;9.85;96.43
52935;BME280;38802;50.198;19.796;2023-05-19T08:16:52;97033.90;;;9.88;96.49
52935;BME280;38802;50.198;19.796;2023-05-19T08:19:18;97035.95;;;9.92;95.62
52935;BME280;38802;50.198;19.796;2023-05-19T08:21:45;97031.20;;;9.92;95.87
52935;BME280;38802;50.198;19.796;2023-05-19T08:24:13;97032.95;;;9.92;95.53
52935;BME280;38802;50.198;19.796;2023-05-19T08:26:40;97033.96;;;9.88;95.28
52935;BME280;38802;50.198;19.796;2023-05-19T08:29:07;97036.09;;;9.82;95.31
52935;BME280;38802;50.198;19.796;2023-05-19T08:31:33;97037.39;;;9.78;95.44
52935;BME280;38802;50.198;19.796;2023-05-19T08:34:00;97042.56;;;9.81;95.82
52935;BME280;38802;50.198;19.796;2023-05-19T08:36:27;97043.56;;;9.82;95.64
52935;BME280;38802;50.198;19.796;2023-05-19T08:38:54;97046.50;;;9.82;95.57
52935;BME280;38802;50.198;19.796;2023-05-19T08:41:21;97045.80;;;9.85;95.83
52935;BME280;38802;50.198;19.796;2023-05-19T08:43:48;97046.17;;;9.89;95.80
52935;BME280;38802;50.198;19.796;2023-05-19T08:46:15;97046.83;;;9.95;95.54
52935;BME280;38802;50.198;19.796;2023-05-19T08:48:43;97048.05;;;10.00;95.68
52935;BME280;38802;50.198;19.796;2023-05-19T08:54:16;97051.39;;;9.99;94.97
52935;BME280;38802;50.198;19.796;2023-05-19T08:56:44;97053.99;;;9.92;94.77
52935;BME280;38802;50.198;19.796;2023-05-19T08:59:13;97054.86;;;9.91;95.13
52935;BME280;38802;50.198;19.796;2023-05-19T09:01:44;97054.82;;;9.95;95.08
52935;BME280;38802;50.198;19.796;2023-05-19T09:04:15;97055.34;;;9.95;95.12
52935;BME280;38802;50.198;19.796;2023-05-19T09:06:42;97056.70;;;9.93;94.85
52935;BME280;38802;50.198;19.796;2023-05-19T09:09:10;97059.77;;;9.91;94.95
52935;BME280;38802;50.198;19.796;2023-05-19T09:11:37;97062.13;;;9.89;94.86
52935;BME280;38802;50.198;19.796;2023-05-19T09:17:32;97065.55;;;9.88;94.88
52935;BME280;38802;50.198;19.796;2023-05-19T09:20:01;97068.55;;;9.84;95.02
52935;BME280;38802;50.198;19.796;2023-05-19T09:22:32;97067.94;;;9.88;95.05
52935;BME280;38802;50.198;19.796;2023-05-19T09:25:02;97068.75;;;9.91;95.18
52935;BME280;38802;50.198;19.796;2023-05-19T09:27:30;97066.48;;;9.94;95.19
52935;BME280;38802;50.198;19.796;2023-05-19T09:30:07;97069.13;;;9.96;94.90
52935;BME280;38802;50.198;19.796;2023-05-19T09:32:35;97071.67;;;9.97;95.15
52935;BME280;38802;50.198;19.796;2023-05-19T09:35:04;97068.58;;;10.02;95.26
52935;BME280;38802;50.198;19.796;2023-05-19T09:37:32;97070.88;;;10.01;95.15
52935;BME280;38802;50.198;19.796;2023-05-19T09:40:00;97070.09;;;10.00;94.70
52935;BME280;38802;50.198;19.796;2023-05-19T09:42:28;97070.70;;;10.04;95.15
52935;BME280;38802;50.198;19.796;2023-05-19T09:45:03;97070.14;;;10.10;95.06
52935;BME280;38802;50.198;19.796;2023-05-19T09:47:41;97074.11;;;10.15;95.12
52935;BME280;38802;50.198;19.796;2023-05-19T09:50:10;97071.95;;;10.19;94.72
52935;BME280;38802;50.198;19.796;2023-05-19T09:52:42;97072.58;;;10.23;94.62
52935;BME280;38802;50.198;19.796;2023-05-19T09:55:11;97078.48;;;10.23;94.46
52935;BME280;38802;50.198;19.796;2023-05-19T09:57:40;97073.44;;;10.23;94.59
52935;BME280;38802;50.198;19.796;2023-05-19T10:00:09;97076.59;;;10.25;94.40
52935;BME280;38802;50.198;19.796;2023-05-19T10:02:47;97076.58;;;10.23;94.26
52935;BME280;38802;50.198;19.796;2023-05-19T10:05:16;97073.36;;;10.19;94.08
52935;BME280;38802;50.198;19.796;2023-05-19T10:07:51;97070.95;;;10.19;94.52
52935;BME280;38802;50.198;19.796;2023-05-19T10:10:21;97065.77;;;10.21;94.46
52935;BME280;38802;50.198;19.796;2023-05-19T10:12:49;97063.55;;;10.23;94.42
52935;BME280;38802;50.198;19.796;2023-05-19T10:15:18;97063.21;;;10.23;94.10
52935;BME280;38802;50.198;19.796;2023-05-19T10:17:58;97067.15;;;10.26;93.98
52935;BME280;38802;50.198;19.796;2023-05-19T10:20:26;97062.85;;;10.31;94.35
52935;BME280;38802;50.198;19.796;2023-05-19T10:22:55;97059.35;;;10.42;94.58
52935;BME280;38802;50.198;19.796;2023-05-19T10:25:23;97058.88;;;10.51;94.28
52935;BME280;38802;50.198;19.796;2023-05-19T10:28:06;97058.88;;;10.58;94.39
52935;BME280;38802;50.198;19.796;2023-05-19T10:30:43;97055.73;;;10.66;93.85
52935;BME280;38802;50.198;19.796;2023-05-19T10:33:15;97051.35;;;10.72;93.58
52935;BME280;38802;50.198;19.796;2023-05-19T10:38:52;97050.45;;;10.79;93.69
52935;BME280;38802;50.198;19.796;2023-05-19T10:41:32;97050.14;;;10.82;93.27
52935;BME280;38802;50.198;19.796;2023-05-19T10:46:57;97050.27;;;10.87;93.19
52935;BME280;38802;50.198;19.796;2023-05-19T10:49:25;97052.52;;;10.87;93.21
52935;BME280;38802;50.198;19.796;2023-05-19T10:51:54;97052.53;;;10.87;92.94
52935;BME280;38802;50.198;19.796;2023-05-19T10:54:39;97051.11;;;10.85;92.60
52935;BME280;38802;50.198;19.796;2023-05-19T10:57:14;97050.13;;;10.84;92.96
52935;BME280;38802;50.198;19.796;2023-05-19T10:59:43;97051.39;;;10.91;93.35
52935;BME280;38802;50.198;19.796;2023-05-19T11:05:11;97050.21;;;11.03;93.40
52935;BME280;38802;50.198;19.796;2023-05-19T11:08:04;97049.36;;;11.08;93.21
52935;BME280;38802;50.198;19.796;2023-05-19T11:10:34;97044.45;;;11.13;93.06
52935;BME280;38802;50.198;19.796;2023-05-19T11:13:05;97046.69;;;11.18;92.87
52935;BME280;38802;50.198;19.796;2023-05-19T11:15:34;97045.39;;;11.26;92.71
52935;BME280;38802;50.198;19.796;2023-05-19T11:18:05;97044.55;;;11.33;92.75
52935;BME280;38802;50.198;19.796;2023-05-19T11:20:37;97047.44;;;11.44;93.10
52935;BME280;38802;50.198;19.796;2023-05-19T11:23:24;97046.23;;;11.53;92.78
52935;BME280;38802;50.198;19.796;2023-05-19T11:25:52;97047.63;;;11.55;92.43
52935;BME280;38802;50.198;19.796;2023-05-19T11:28:22;97046.75;;;11.55;92.30
52935;BME280;38802;50.198;19.796;2023-05-19T11:30:56;97045.77;;;11.54;92.13
52935;BME280;38802;50.198;19.796;2023-05-19T11:33:25;97046.86;;;11.54;92.09
52935;BME280;38802;50.198;19.796;2023-05-19T11:35:55;97047.48;;;11.53;92.00
52935;BME280;38802;50.198;19.796;2023-05-19T11:38:27;97044.84;;;11.58;92.05
52935;BME280;38802;50.198;19.796;2023-05-19T11:40:55;97046.98;;;11.69;92.18
52935;BME280;38802;50.198;19.796;2023-05-19T11:43:24;97046.71;;;11.78;92.28
52935;BME280;38802;50.198;19.796;2023-05-19T11:45:53;97050.54;;;11.85;92.29
52935;BME280;38802;50.198;19.796;2023-05-19T11:48:22;97052.18;;;11.86;91.39
52935;BME280;38802;50.198;19.796;2023-05-19T11:50:51;97051.25;;;11.73;91.10
52935;BME280;38802;50.198;19.796;2023-05-19T11:53:19;97057.13;;;11.63;91.11
52935;BME280;38802;50.198;19.796;2023-05-19T11:55:48;97058.94;;;11.60;91.08
52935;BME280;38802;50.198;19.796;2023-05-19T11:58:16;97059.24;;;11.58;90.79
52935;BME280;38802;50.198;19.796;2023-05-19T12:00:44;97054.17;;;11.54;90.85
52935;BME280;38802;50.198;19.796;2023-05-19T12:03:14;97055.00;;;11.54;91.30
52935;BME280;38802;50.198;19.796;2023-05-19T12:05:48;97060.36;;;11.59;91.18
52935;BME280;38802;50.198;19.796;2023-05-19T12:08:16;97057.46;;;11.66;91.48
52935;BME280;38802;50.198;19.796;2023-05-19T12:10:48;97062.77;;;11.72;91.41
52935;BME280;38802;50.198;19.796;2023-05-19T12:13:20;97063.67;;;11.74;91.07
52935;BME280;38802;50.198;19.796;2023-05-19T12:15:50;97063.32;;;11.74;90.62
52935;BME280;38802;50.198;19.796;2023-05-19T12:18:19;97063.15;;;11.69;90.91
52935;BME280;38802;50.198;19.796;2023-05-19T12:20:47;97065.92;;;11.67;90.86
52935;BME280;38802;50.198;19.796;2023-05-19T12:23:16;97064.95;;;11.63;90.63
52935;BME280;38802;50.198;19.796;2023-05-19T12:25:44;97063.78;;;11.60;90.61
52935;BME280;38802;50.198;19.796;2023-05-19T12:28:14;97061.06;;;11.55;90.64
52935;BME280;38802;50.198;19.796;2023-05-19T12:30:46;97057.89;;;11.53;90.73
52935;BME280;38802;50.198;19.796;2023-05-19T12:33:14;97057.08;;;11.57;90.86
52935;BME280;38802;50.198;19.796;2023-05-19T12:35:43;97058.31;;;11.64;90.86
52935;BME280;38802;50.198;19.796;2023-05-19T12:38:13;97056.67;;;11.69;90.85
52935;BME280;38802;50.198;19.796;2023-05-19T12:40:42;97055.60;;;11.70;90.38
52935;BME280;38802;50.198;19.796;2023-05-19T12:43:20;97051.88;;;11.63;90.25
52935;BME280;38802;50.198;19.796;2023-05-19T12:45:48;97053.17;;;11.60;90.31
52935;BME280;38802;50.198;19.796;2023-05-19T12:48:17;97052.79;;;11.60;90.32
52935;BME280;38802;50.198;19.796;2023-05-19T12:50:52;97051.17;;;11.57;90.19
52935;BME280;38802;50.198;19.796;2023-05-19T12:53:25;97048.50;;;11.55;90.28
52935;BME280;38802;50.198;19.796;2023-05-19T12:55:54;97047.33;;;11.59;90.41
52935;BME280;38802;50.198;19.796;2023-05-19T12:58:22;97043.13;;;11.64;90.39
52935;BME280;38802;50.198;19.796;2023-05-19T13:00:57;97043.49;;;11.74;90.29
52935;BME280;38802;50.198;19.796;2023-05-19T13:03:25;97036.34;;;11.81;90.36
52935;BME280;38802;50.198;19.796;2023-05-19T13:05:53;97034.10;;;11.90;90.59
52935;BME280;38802;50.198;19.796;2023-05-19T13:08:23;97035.21;;;11.99;90.04
52935;BME280;38802;50.198;19.796;2023-05-19T13:10:51;97035.27;;;11.95;89.71
52935;BME280;38802;50.198;19.796;2023-05-19T13:13:19;97035.70;;;11.90;89.60
52935;BME280;38802;50.198;19.796;2023-05-19T13:15:48;97036.56;;;11.88;89.74
52935;BME280;38802;50.198;19.796;2023-05-19T13:18:17;97033.44;;;11.88;89.78
52935;BME280;38802;50.198;19.796;2023-05-19T13:20:46;97031.55;;;11.87;89.74
52935;BME280;38802;50.198;19.796;2023-05-19T13:23:17;97032.44;;;11.89;89.87
52935;BME280;38802;50.198;19.796;2023-05-19T13:25:46;97032.94;;;11.87;89.39
52935;BME280;38802;50.198;19.796;2023-05-19T13:28:14;97034.69;;;11.80;89.56
52935;BME280;38802;50.198;19.796;2023-05-19T13:30:42;97039.06;;;11.80;89.62
52935;BME280;38802;50.198;19.796;2023-05-19T13:33:11;97036.81;;;11.82;89.78
52935;BME280;38802;50.198;19.796;2023-05-19T13:35:39;97037.52;;;11.89;89.87
52935;BME280;38802;50.198;19.796;2023-05-19T13:38:08;97034.93;;;11.88;89.43
52935;BME280;38802;50.198;19.796;2023-05-19T13:40:37;97029.14;;;11.82;89.22
52935;BME280;38802;50.198;19.796;2023-05-19T13:43:06;97029.66;;;11.75;89.36